Time;durP1;ratioP1;P1;durP2;ratioP2;P2;SDS_P1;SDS_P2;PMS_P1;PMS_P2;Temp;Humidity;BMP_temperature;BMP_pressure;BME280_temperature;BME280_humidity;BME280_pressure;Samples;Min_cycle;Max_cycle;Signal;HPM_P1;HPM_P2
2022/12/17 13:06:42;;;;;;;7.68;5.05;;;0.40;84.30;;;;;;4975844;28;20232;-66
2022/12/17 13:09:33;;;;;;;9.57;4.93;;;0.30;84.20;;;;;;4986097;28;20272;-67
2022/12/17 13:12:23;;;;;;;7.63;4.20;;;0.30;84.30;;;;;;4994572;28;20230;-67
2022/12/17 13:14:58;;;;;;;6.15;3.72;;;0.40;84.50;;;;;;4997346;28;20194;-65
2022/12/17 13:17:35;;;;;;;8.02;4.80;;;0.40;84.40;;;;;;4988815;28;20190;-65
2022/12/17 13:20:26;;;;;;;9.00;5.03;;;0.40;84.50;;;;;;4992869;28;20239;-72
2022/12/17 13:23:16;;;;;;;7.72;4.97;;;0.40;84.40;;;;;;5003187;28;20220;-73
2022/12/17 13:25:44;;;;;;;6.53;4.43;;;0.40;84.40;;;;;;4998686;28;20227;-73
2022/12/17 13:28:27;;;;;;;5.40;3.83;;;0.40;84.30;;;;;;5005862;28;20220;-66
2022/12/17 13:31:17;;;;;;;9.20;4.57;;;0.40;84.40;;;;;;4988755;28;20348;-67
2022/12/17 13:33:55;;;;;;;7.20;4.60;;;0.40;84.40;;;;;;4988231;28;20206;-66
2022/12/17 13:36:32;;;;;;;8.13;4.80;;;0.40;84.40;;;;;;4992145;28;20240;-66
2022/12/17 13:39:07;;;;;;;7.97;3.80;;;0.40;84.50;;;;;;4984066;28;20531;-66
2022/12/17 13:41:37;;;;;;;8.07;4.18;;;0.40;84.40;;;;;;5006250;28;20864;-66
2022/12/17 13:44:20;;;;;;;11.20;4.70;;;0.40;84.40;;;;;;4989411;28;20196;-66
2022/12/17 13:46:50;;;;;;;6.85;4.15;;;0.40;84.50;;;;;;4990831;28;20202;-66
2022/12/17 13:49:20;;;;;;;8.85;5.65;;;0.40;84.40;;;;;;4985475;28;20217;-67
2022/12/17 13:51:59;;;;;;;9.25;4.00;;;0.40;84.50;;;;;;4984257;28;20234;-66
2022/12/17 13:54:29;;;;;;;10.93;4.97;;;0.40;84.40;;;;;;5000431;28;20198;-67
2022/12/17 13:57:07;;;;;;;6.20;3.80;;;0.40;84.50;;;;;;4984990;28;20201;-66
2022/12/17 13:59:36;;;;;;;10.45;6.13;;;0.40;84.50;;;;;;4985340;28;20885;-66
2022/12/17 14:02:04;;;;;;;9.07;5.35;;;0.40;84.50;;;;;;4987254;28;20573;-67
2022/12/17 14:04:33;;;;;;;13.25;6.32;;;0.40;84.50;;;;;;4977218;28;20318;-67
2022/12/17 14:07:05;;;;;;;8.80;5.40;;;0.30;84.40;;;;;;4973540;28;20229;-67
2022/12/17 14:09:38;;;;;;;8.45;4.50;;;0.40;84.40;;;;;;4985937;28;20298;-66
2022/12/17 14:12:23;;;;;;;9.52;4.70;;;0.40;84.50;;;;;;4994306;28;20202;-65
2022/12/17 14:14:55;;;;;;;8.35;4.18;;;0.30;84.40;;;;;;4978469;28;20199;-66
2022/12/17 14:17:26;;;;;;;7.80;4.32;;;0.40;84.60;;;;;;5004888;28;20205;-67
2022/12/17 14:19:59;;;;;;;6.78;4.70;;;0.30;84.40;;;;;;4984045;28;20233;-68
2022/12/17 14:22:34;;;;;;;5.60;3.40;;;0.30;84.50;;;;;;4991359;28;20190;-67
2022/12/17 14:25:05;;;;;;;4.72;3.78;;;0.30;84.60;;;;;;4980989;28;20212;-67
2022/12/17 14:27:36;;;;;;;6.05;4.47;;;0.30;84.50;;;;;;5002615;28;20297;-67
2022/12/17 14:30:22;;;;;;;6.53;4.10;;;0.30;84.60;;;;;;4990742;28;20571;-68
2022/12/17 14:32:51;;;;;;;7.65;4.75;;;0.30;84.50;;;;;;5010292;28;20194;-67
2022/12/17 14:35:24;;;;;;;4.85;3.42;;;0.40;84.50;;;;;;4986054;28;20726;-66
2022/12/17 14:37:53;;;;;;;6.35;3.53;;;0.30;84.60;;;;;;4994933;28;20688;-67
2022/12/17 14:40:24;;;;;;;6.45;3.72;;;0.30;84.40;;;;;;4981280;28;20604;-67
2022/12/17 14:42:57;;;;;;;4.75;3.28;;;0.40;84.60;;;;;;4988117;28;20193;-67
2022/12/17 14:45:27;;;;;;;5.20;3.83;;;0.40;84.60;;;;;;4979635;28;20227;-68
2022/12/17 14:47:58;;;;;;;7.80;3.50;;;0.40;84.50;;;;;;4988718;28;20505;-66
2022/12/17 14:50:31;;;;;;;5.70;3.90;;;0.40;84.50;;;;;;4984458;28;20606;-68
2022/12/17 14:53:01;;;;;;;8.80;4.00;;;0.40;84.60;;;;;;4988385;28;20202;-68
2022/12/17 14:55:38;;;;;;;4.68;3.40;;;0.40;84.60;;;;;;4988577;28;20653;-66
2022/12/17 14:58:19;;;;;;;4.35;3.50;;;0.30;84.40;;;;;;4982556;28;20211;-68
2022/12/17 15:00:51;;;;;;;5.95;3.05;;;0.40;84.60;;;;;;4999298;28;20317;-66
2022/12/17 15:03:23;;;;;;;8.05;3.88;;;0.40;84.50;;;;;;5004895;28;20201;-66
2022/12/17 15:05:58;;;;;;;4.53;3.50;;;0.30;84.40;;;;;;5010221;23;20707;-49
2022/12/17 15:08:33;;;;;;;5.75;3.10;;;0.40;84.50;;;;;;5020885;28;20676;-49
2022/12/17 15:11:03;;;;;;;7.32;4.30;;;0.40;84.60;;;;;;5015402;28;20848;-48
2022/12/17 15:13:32;;;;;;;5.68;4.00;;;0.30;84.40;;;;;;5035419;28;20201;-49
2022/12/17 15:16:00;;;;;;;5.15;3.08;;;0.40;84.50;;;;;;5031013;28;20580;-48
2022/12/17 15:18:29;;;;;;;5.32;2.50;;;0.30;84.40;;;;;;5027999;28;20694;-51
2022/12/17 15:20:57;;;;;;;6.90;4.05;;;0.40;84.40;;;;;;5038874;28;20307;-50
2022/12/17 15:23:26;;;;;;;4.70;3.70;;;0.30;84.40;;;;;;5046074;28;20193;-51
2022/12/17 15:25:55;;;;;;;4.47;3.20;;;0.30;84.40;;;;;;5030693;28;20387;-50
2022/12/17 15:28:25;;;;;;;5.72;3.65;;;0.30;84.40;;;;;;5032882;28;20192;-51
2022/12/17 15:30:53;;;;;;;4.93;3.40;;;0.30;84.40;;;;;;5034383;28;20212;-52
2022/12/17 15:33:22;;;;;;;5.47;3.15;;;0.30;84.30;;;;;;5038808;28;20203;-53
2022/12/17 15:35:50;;;;;;;8.15;3.53;;;0.30;84.30;;;;;;5023545;28;20302;-50
2022/12/17 15:38:18;;;;;;;6.68;3.58;;;0.40;84.40;;;;;;5047242;28;20196;-48
2022/12/17 15:40:50;;;;;;;8.95;3.47;;;0.30;84.40;;;;;;5026946;28;20220;-49
2022/12/17 15:43:17;;;;;;;4.32;2.67;;;0.40;84.40;;;;;;5037470;28;20258;-49
2022/12/17 15:45:49;;;;;;;5.30;2.95;;;0.30;84.40;;;;;;5028284;28;20224;-49
2022/12/17 15:48:19;;;;;;;3.20;2.47;;;0.40;84.40;;;;;;5031571;28;20201;-49
2022/12/17 15:50:49;;;;;;;4.78;3.15;;;0.30;84.30;;;;;;5042605;28;20704;-52
2022/12/17 15:53:18;;;;;;;7.13;3.95;;;0.30;84.40;;;;;;5026770;28;20635;-52
2022/12/17 15:55:47;;;;;;;6.00;4.18;;;0.30;84.40;;;;;;5042135;28;20581;-55
2022/12/17 15:58:17;;;;;;;5.00;3.45;;;0.30;84.40;;;;;;5051123;28;20197;-51
2022/12/17 16:00:47;;;;;;;4.22;3.28;;;0.30;84.40;;;;;;5027502;28;20224;-51
2022/12/17 16:03:16;;;;;;;6.68;3.85;;;0.40;84.50;;;;;;5027963;28;20201;-52
2022/12/17 16:05:45;;;;;;;5.57;3.65;;;0.30;84.40;;;;;;5020322;28;20286;-52
2022/12/17 16:08:14;;;;;;;6.90;3.10;;;0.40;84.50;;;;;;5027392;28;20215;-54
2022/12/17 16:10:42;;;;;;;4.72;2.80;;;0.40;84.50;;;;;;5029220;28;21693;-52
2022/12/17 16:13:11;;;;;;;6.50;3.38;;;0.30;84.40;;;;;;5022633;28;20983;-51
2022/12/17 16:15:40;;;;;;;6.85;3.45;;;0.30;84.50;;;;;;5026812;28;20294;-50
2022/12/17 16:18:10;;;;;;;7.55;4.25;;;0.30;84.40;;;;;;5027216;28;20217;-49
2022/12/17 16:20:38;;;;;;;4.82;3.17;;;0.30;84.40;;;;;;5025220;28;20782;-50
2022/12/17 16:23:07;;;;;;;6.90;3.80;;;0.30;84.30;;;;;;5028672;28;20668;-52
2022/12/17 16:25:35;;;;;;;5.20;3.63;;;0.40;84.60;;;;;;5024587;28;20224;-49
2022/12/17 16:28:04;;;;;;;4.55;3.08;;;0.30;84.40;;;;;;5029247;28;20188;-54
2022/12/17 16:30:33;;;;;;;5.20;3.60;;;0.30;84.40;;;;;;5029590;28;20223;-53
2022/12/17 16:33:01;;;;;;;5.53;3.70;;;0.30;84.40;;;;;;5031267;28;20295;-51
2022/12/17 16:35:31;;;;;;;4.68;3.10;;;0.30;84.40;;;;;;5025037;28;20216;-50
2022/12/17 16:38:00;;;;;;;6.18;4.18;;;0.40;84.60;;;;;;5026980;28;20246;-51
2022/12/17 16:40:28;;;;;;;5.28;3.63;;;0.40;84.50;;;;;;5025390;28;20204;-50
2022/12/17 16:42:57;;;;;;;6.45;4.72;;;0.30;84.40;;;;;;5026241;28;20847;-47
2022/12/17 16:45:26;;;;;;;19.25;8.90;;;0.30;84.60;;;;;;5027021;28;20511;-49
2022/12/17 16:47:54;;;;;;;15.40;10.02;;;0.30;84.20;;;;;;5027834;28;20196;-49
2022/12/17 16:50:23;;;;;;;20.03;12.40;;;0.30;83.20;;;;;;5025087;28;20440;-50
2022/12/17 16:52:53;;;;;;;16.02;10.68;;;0.30;82.50;;;;;;5032376;28;20492;-47
2022/12/17 16:55:22;;;;;;;14.27;8.40;;;0.30;82.90;;;;;;5020788;28;20223;-50
2022/12/17 16:57:50;;;;;;;12.75;8.95;;;0.30;83.10;;;;;;5024476;28;20235;-49
2022/12/17 17:00:19;;;;;;;12.82;8.63;;;0.30;83.20;;;;;;5031085;28;20228;-50
2022/12/17 17:02:47;;;;;;;15.68;9.05;;;0.30;83.30;;;;;;5031408;28;20550;-48
2022/12/17 17:05:21;;;;;;;18.75;8.75;;;0.30;83.20;;;;;;5038181;28;20292;-49
2022/12/17 17:07:49;;;;;;;12.50;8.65;;;0.30;83.30;;;;;;5031641;28;20193;-49
2022/12/17 17:10:19;;;;;;;14.48;8.15;;;0.30;83.40;;;;;;5038946;28;20225;-49
2022/12/17 17:12:50;;;;;;;11.05;7.30;;;0.30;83.50;;;;;;5026764;28;20196;-50
2022/12/17 17:15:21;;;;;;;10.52;7.03;;;0.30;83.60;;;;;;5040061;28;20217;-48
2022/12/17 17:17:50;;;;;;;12.15;6.57;;;0.30;83.50;;;;;;5030354;28;20198;-49
2022/12/17 17:20:23;;;;;;;13.52;6.95;;;0.30;83.50;;;;;;5031574;28;20254;-49
2022/12/17 17:22:54;;;;;;;11.15;7.45;;;0.30;83.50;;;;;;5032384;28;20668;-48
2022/12/17 17:25:27;;;;;;;11.55;8.07;;;0.30;83.60;;;;;;5029862;28;20247;-49
2022/12/17 17:28:15;;;;;;;16.20;8.48;;;0.30;83.60;;;;;;5040084;28;20181;-49
2022/12/17 17:30:45;;;;;;;11.60;5.93;;;0.30;83.60;;;;;;5030922;28;20224;-49
2022/12/17 17:33:13;;;;;;;10.02;6.65;;;0.30;83.60;;;;;;5030145;28;20377;-49
2022/12/17 17:35:42;;;;;;;10.10;6.82;;;0.30;83.60;;;;;;5033337;28;20224;-49
2022/12/17 17:38:11;;;;;;;11.68;7.18;;;0.30;83.60;;;;;;5037121;28;20189;-48
2022/12/17 17:40:40;;;;;;;12.65;8.45;;;0.30;83.60;;;;;;5032943;28;20235;-50
2022/12/17 17:43:10;;;;;;;10.90;7.97;;;0.30;83.60;;;;;;5032132;28;20211;-50
2022/12/17 17:45:41;;;;;;;12.98;8.23;;;0.30;83.60;;;;;;5039817;28;20224;-49
2022/12/17 17:48:10;;;;;;;10.52;6.82;;;0.30;83.60;;;;;;5026887;28;20227;-50
2022/12/17 17:50:38;;;;;;;11.23;7.65;;;0.30;83.70;;;;;;5040620;28;20201;-48
2022/12/17 17:53:07;;;;;;;10.65;7.10;;;0.30;83.60;;;;;;5034009;28;20526;-50
2022/12/17 17:55:36;;;;;;;14.68;7.53;;;0.30;83.60;;;;;;5037752;28;20219;-49
2022/12/17 17:58:06;;;;;;;17.45;6.72;;;0.30;83.60;;;;;;5030427;28;20199;-49
2022/12/17 18:00:35;;;;;;;10.50;8.02;;;0.30;83.60;;;;;;5035696;28;20239;-50
2022/12/17 18:03:03;;;;;;;9.85;6.70;;;0.30;83.70;;;;;;5028379;28;20705;-49
2022/12/17 18:05:37;;;;;;;10.18;6.90;;;0.30;83.60;;;;;;5031051;28;20227;-48
2022/12/17 18:08:09;;;;;;;10.15;6.97;;;0.30;83.60;;;;;;5039557;28;20250;-51
2022/12/17 18:10:37;;;;;;;11.40;6.63;;;0.30;83.60;;;;;;5028417;28;20221;-50
2022/12/17 18:16:00;;;;;;;13.95;6.50;;;0.30;83.50;;;;;;5023650;28;20271;-49
2022/12/17 18:18:33;;;;;;;12.93;6.85;;;0.30;83.50;;;;;;5010990;28;20197;-49
2022/12/17 18:21:04;;;;;;;10.63;7.05;;;0.30;83.60;;;;;;5041499;28;20219;-51
2022/12/17 18:23:32;;;;;;;17.20;10.02;;;0.30;83.60;;;;;;5035540;28;20205;-48
2022/12/17 18:26:06;;;;;;;8.68;6.47;;;0.30;83.10;;;;;;5034380;28;20224;-48
2022/12/17 18:28:37;;;;;;;14.02;6.82;;;0.30;83.20;;;;;;5028649;28;20196;-50
2022/12/17 18:31:09;;;;;;;9.20;7.07;;;0.30;83.50;;;;;;5029123;28;20212;-49
2022/12/17 18:33:40;;;;;;;10.10;6.07;;;0.30;83.60;;;;;;5047525;28;20194;-50
2022/12/17 18:36:11;;;;;;;9.38;6.35;;;0.30;83.60;;;;;;5035394;28;20634;-49
2022/12/17 18:38:40;;;;;;;11.70;7.38;;;0.30;83.70;;;;;;5030694;28;20255;-49
2022/12/17 18:43:54;;;;;;;9.88;6.50;;;0.30;83.60;;;;;;5029305;28;20284;-50
2022/12/17 18:46:23;;;;;;;8.23;6.00;;;0.30;83.60;;;;;;5021467;28;20216;-52
2022/12/17 18:48:52;;;;;;;9.10;5.95;;;0.30;83.60;;;;;;5026262;28;20266;-49
2022/12/17 18:51:22;;;;;;;11.50;7.85;;;0.30;83.60;;;;;;5029029;28;20884;-50
2022/12/17 18:53:51;;;;;;;12.68;7.10;;;0.30;83.50;;;;;;5020621;28;20730;-50
2022/12/17 18:56:19;;;;;;;10.73;6.65;;;0.30;83.50;;;;;;5037763;28;20285;-49
2022/12/17 18:59:12;;;;;;;12.45;7.63;;;0.30;83.20;;;;;;5028747;28;20207;-50
2022/12/17 19:01:41;;;;;;;15.07;7.28;;;0.30;83.20;;;;;;5047714;28;20208;-50
2022/12/17 19:04:15;;;;;;;10.25;5.15;;;0.30;83.40;;;;;;5030413;28;20199;-50
2022/12/17 19:06:44;;;;;;;10.32;7.57;;;0.30;83.40;;;;;;5028933;28;20232;-50
2022/12/17 19:09:19;;;;;;;9.85;6.20;;;0.30;83.40;;;;;;5028583;28;20193;-49
2022/12/17 19:11:48;;;;;;;9.88;6.13;;;0.30;83.60;;;;;;5028940;28;20254;-49
2022/12/17 19:14:20;;;;;;;12.30;7.82;;;0.30;83.60;;;;;;5028922;28;20224;-50
2022/12/17 19:16:52;;;;;;;11.32;6.60;;;0.30;83.40;;;;;;5027494;28;20277;-49
2022/12/17 19:19:22;;;;;;;9.63;6.85;;;0.30;83.30;;;;;;5029269;28;20237;-49
2022/12/17 19:21:52;;;;;;;9.65;7.15;;;0.30;83.30;;;;;;5030254;28;20323;-49
2022/12/17 19:24:22;;;;;;;10.63;6.20;;;0.30;83.10;;;;;;5032773;28;20205;-49
2022/12/17 19:26:51;;;;;;;11.13;7.97;;;0.30;83.30;;;;;;5009776;28;20881;-49
2022/12/17 19:29:21;;;;;;;10.23;7.15;;;0.30;83.40;;;;;;5014285;28;20214;-49
2022/12/17 19:31:50;;;;;;;9.75;7.55;;;0.30;83.60;;;;;;5012889;28;20228;-48
2022/12/17 19:34:20;;;;;;;10.77;6.20;;;0.30;83.40;;;;;;5022150;28;20270;-49
2022/12/17 19:36:48;;;;;;;13.48;7.03;;;0.30;83.40;;;;;;5020829;28;20232;-50
2022/12/17 19:39:19;;;;;;;8.13;6.40;;;0.30;83.50;;;;;;5023250;28;20199;-49
2022/12/17 19:41:50;;;;;;;12.93;6.47;;;0.30;83.50;;;;;;5016905;28;20221;-49
2022/12/17 19:44:22;;;;;;;8.23;5.80;;;0.30;83.50;;;;;;5017286;28;20228;-50
2022/12/17 19:46:50;;;;;;;9.60;6.50;;;0.30;83.50;;;;;;5000736;28;20221;-49
2022/12/17 19:49:19;;;;;;;9.10;5.90;;;0.30;83.50;;;;;;5007521;28;20263;-48
2022/12/17 19:51:47;;;;;;;11.95;6.82;;;0.30;83.40;;;;;;5026089;28;20213;-49
2022/12/17 19:54:16;;;;;;;11.70;7.03;;;0.30;83.50;;;;;;5007641;28;20263;-49
2022/12/17 19:56:45;;;;;;;11.18;7.60;;;0.30;83.30;;;;;;5024018;28;20225;-50
2022/12/17 19:59:14;;;;;;;10.60;6.50;;;0.30;83.40;;;;;;5025760;28;20189;-50
2022/12/17 20:01:47;;;;;;;9.25;6.15;;;0.30;83.40;;;;;;5022541;28;20716;-52
2022/12/17 20:04:16;;;;;;;7.88;5.75;;;0.30;83.40;;;;;;5025300;28;20684;-49
2022/12/17 20:06:45;;;;;;;9.95;5.97;;;0.30;83.40;;;;;;5024276;28;20570;-50
2022/12/17 20:09:16;;;;;;;8.77;5.82;;;0.30;83.40;;;;;;5024010;28;20201;-49
2022/12/17 20:11:46;;;;;;;9.68;6.47;;;0.30;83.40;;;;;;5025325;28;20299;-46
2022/12/17 20:14:17;;;;;;;9.50;6.63;;;0.30;83.40;;;;;;5025560;28;20217;-49
2022/12/17 20:16:48;;;;;;;8.65;5.30;;;0.30;83.40;;;;;;5023162;28;20227;-49
2022/12/17 20:19:19;;;;;;;10.30;5.68;;;0.30;83.50;;;;;;5029998;28;20255;-50
2022/12/17 20:21:48;;;;;;;9.48;5.47;;;0.30;83.40;;;;;;5023630;28;20213;-49
2022/12/17 20:24:18;;;;;;;8.10;5.80;;;0.30;83.30;;;;;;5022879;28;20218;-49
2022/12/17 20:26:50;;;;;;;10.07;7.45;;;0.30;83.40;;;;;;5021699;28;20788;-48
2022/12/17 20:29:19;;;;;;;10.05;5.93;;;0.30;83.40;;;;;;5025147;28;20668;-50
2022/12/17 20:31:50;;;;;;;10.32;6.90;;;0.30;83.20;;;;;;5015798;28;20317;-48
2022/12/17 20:34:20;;;;;;;8.13;6.20;;;0.30;83.10;;;;;;5023604;28;20221;-49
2022/12/17 20:36:49;;;;;;;10.35;6.15;;;0.30;83.20;;;;;;5043543;28;20411;-48
2022/12/17 20:39:17;;;;;;;9.07;6.15;;;0.30;83.20;;;;;;5026517;28;20188;-48
2022/12/17 20:41:54;;;;;;;7.20;5.95;;;0.30;83.20;;;;;;5011520;28;20673;-51
2022/12/17 20:44:23;;;;;;;8.23;5.45;;;0.30;83.20;;;;;;5008660;28;20224;-48
2022/12/17 20:46:53;;;;;;;9.13;6.95;;;0.30;83.30;;;;;;5004594;28;20220;-51
2022/12/17 20:49:21;;;;;;;11.02;6.63;;;0.30;83.20;;;;;;5007406;28;20413;-48
2022/12/17 20:51:50;;;;;;;12.77;6.90;;;0.30;83.20;;;;;;5006894;28;20300;-47
2022/12/17 20:54:19;;;;;;;12.02;6.97;;;0.30;83.10;;;;;;5006130;28;20305;-49
2022/12/17 20:56:47;;;;;;;9.75;5.50;;;0.30;83.20;;;;;;5005924;28;20213;-51
2022/12/17 20:59:18;;;;;;;10.95;6.68;;;0.30;83.10;;;;;;5007959;28;20290;-49
2022/12/17 21:01:48;;;;;;;7.50;6.25;;;0.30;83.10;;;;;;5023548;28;20655;-48
2022/12/17 21:04:24;;;;;;;11.68;6.70;;;0.30;83.00;;;;;;5023007;28;20536;-50
2022/12/17 21:06:54;;;;;;;8.55;6.32;;;0.20;82.80;;;;;;5005591;28;20224;-49
2022/12/17 21:09:24;;;;;;;9.32;5.10;;;0.30;83.10;;;;;;5013269;28;20193;-51
2022/12/17 21:11:53;;;;;;;8.32;5.82;;;0.30;83.20;;;;;;5007515;28;20216;-48
2022/12/17 21:14:21;;;;;;;8.32;6.43;;;0.30;83.20;;;;;;5008493;28;20692;-49
2022/12/17 21:16:52;;;;;;;13.77;7.22;;;0.30;83.10;;;;;;5022725;28;20575;-49
2022/12/17 21:19:21;;;;;;;9.80;6.18;;;0.30;82.70;;;;;;5026557;28;20322;-48
2022/12/17 21:21:51;;;;;;;7.72;5.43;;;0.20;82.80;;;;;;5028445;28;20220;-48
2022/12/17 21:24:19;;;;;;;10.27;6.30;;;0.20;82.90;;;;;;5028401;28;20240;-48
2022/12/17 21:26:48;;;;;;;10.43;7.03;;;0.20;83.00;;;;;;5031089;28;20336;-50
2022/12/17 21:29:17;;;;;;;9.32;7.22;;;0.30;83.00;;;;;;5052946;28;20189;-51
2022/12/17 21:31:47;;;;;;;9.63;6.10;;;0.20;82.90;;;;;;5033194;28;20691;-48
2022/12/17 21:34:20;;;;;;;11.13;7.15;;;0.20;82.10;;;;;;5034145;28;20208;-50
2022/12/17 21:36:52;;;;;;;9.05;5.88;;;0.30;82.70;;;;;;5022244;28;20429;-48
2022/12/17 21:39:21;;;;;;;9.32;7.47;;;0.20;82.40;;;;;;5030086;28;20185;-49
2022/12/17 21:44:38;;;;;;;10.70;6.85;;;0.20;82.70;;;;;;5041885;28;20308;-50
2022/12/17 21:47:10;;;;;;;10.10;6.30;;;0.20;82.60;;;;;;5030401;28;20307;-50
2022/12/17 21:49:39;;;;;;;10.80;6.65;;;0.20;82.50;;;;;;5026868;28;20197;-48
2022/12/17 21:52:12;;;;;;;10.98;7.60;;;0.20;82.40;;;;;;5010786;28;20190;-48
2022/12/17 21:54:40;;;;;;;12.73;7.70;;;0.20;81.20;;;;;;5006176;28;20300;-49
2022/12/17 21:57:09;;;;;;;14.07;6.82;;;0.20;80.70;;;;;;5010902;28;20185;-50
2022/12/17 21:59:37;;;;;;;10.35;6.20;;;0.10;81.60;;;;;;5006579;28;20595;-51
2022/12/17 22:02:06;;;;;;;13.57;8.48;;;0.10;81.90;;;;;;5010816;28;20236;-50
2022/12/17 22:04:35;;;;;;;9.75;6.60;;;0.10;81.50;;;;;;5004661;28;20713;-51
2022/12/17 22:07:04;;;;;;;7.68;5.68;;;0.20;82.00;;;;;;5010732;28;20228;-50
2022/12/17 22:09:45;;;;;;;11.23;7.65;;;0.20;82.30;;;;;;5009817;28;20607;-50
2022/12/17 22:15:20;;;;;;;12.07;7.60;;;0.20;82.40;;;;;;5015096;28;20217;-50
2022/12/17 22:17:53;;;;;;;10.00;6.47;;;0.20;82.30;;;;;;5019865;28;20205;-51
2022/12/17 22:20:23;;;;;;;8.85;6.47;;;0.20;82.20;;;;;;5009729;28;20371;-50
2022/12/17 22:22:52;;;;;;;11.80;6.43;;;0.20;82.10;;;;;;5008871;28;20209;-50
2022/12/17 22:25:26;;;;;;;12.07;7.80;;;0.20;81.90;;;;;;5007504;28;20217;-49
2022/12/17 22:27:55;;;;;;;11.07;8.15;;;0.10;81.50;;;;;;4985306;28;20256;-49
2022/12/17 22:33:14;;;;;;;7.75;6.50;;;0.10;80.50;;;;;;5008973;28;20203;-48
2022/12/17 22:36:02;;;;;;;12.00;6.82;;;0.10;81.30;;;;;;5009394;28;20601;-49
2022/12/17 22:38:54;;;;;;;7.70;5.90;;;0.10;81.50;;;;;;5000656;28;20665;-50
2022/12/17 22:44:51;;;;;;;8.57;6.13;;;0.10;81.80;;;;;;5010180;28;20697;-48
2022/12/17 22:47:23;;;;;;;10.98;6.57;;;0.10;81.90;;;;;;4997797;28;20277;-49
2022/12/17 22:49:51;;;;;;;9.40;6.75;;;0.10;82.10;;;;;;5004856;28;20503;-50
2022/12/17 22:52:20;;;;;;;11.15;7.07;;;0.10;82.10;;;;;;5010504;28;20193;-52
2022/12/17 22:54:49;;;;;;;8.88;6.57;;;0.20;82.20;;;;;;5007533;28;20264;-49
2022/12/17 22:57:20;;;;;;;8.02;5.95;;;0.10;82.20;;;;;;5009963;28;20538;-49
2022/12/17 23:00:13;;;;;;;10.15;6.88;;;0.10;82.10;;;;;;5004762;28;20580;-49
2022/12/17 23:02:42;;;;;;;8.65;6.15;;;0.10;82.10;;;;;;5007998;28;20208;-50
2022/12/17 23:05:10;;;;;;;8.55;5.50;;;0.20;81.90;;;;;;5004230;28;20601;-50
2022/12/17 23:07:39;;;;;;;8.18;5.93;;;0.20;82.00;;;;;;5011009;28;20562;-50
2022/12/17 23:10:08;;;;;;;7.88;5.68;;;0.10;82.10;;;;;;5018319;28;20289;-50
2022/12/17 23:12:53;;;;;;;7.35;6.10;;;0.20;82.10;;;;;;5010026;28;20632;-51
2022/12/17 23:15:28;;;;;;;9.02;6.05;;;0.10;81.90;;;;;;5008699;28;20707;-49
2022/12/17 23:17:59;;;;;;;12.23;6.72;;;0.10;82.10;;;;;;5017632;28;20201;-50
2022/12/17 23:20:30;;;;;;;7.32;5.80;;;0.10;81.80;;;;;;5010309;28;20313;-48
2022/12/17 23:22:59;;;;;;;9.68;6.18;;;0.10;82.40;;;;;;5009786;28;20312;-49
2022/12/17 23:25:29;;;;;;;9.10;6.90;;;0.20;82.10;;;;;;5007308;28;20440;-49
2022/12/17 23:27:59;;;;;;;7.30;5.55;;;0.20;81.90;;;;;;5009057;28;20202;-48
2022/12/17 23:30:27;;;;;;;9.10;5.65;;;0.10;82.00;;;;;;5006932;28;20725;-49
2022/12/17 23:32:56;;;;;;;7.32;5.32;;;0.10;82.00;;;;;;5010356;28;20312;-49
2022/12/17 23:35:25;;;;;;;8.15;6.05;;;0.20;82.00;;;;;;5008103;28;20220;-48
2022/12/17 23:37:55;;;;;;;8.85;5.85;;;0.10;82.10;;;;;;5009365;28;20189;-49
2022/12/17 23:40:24;;;;;;;8.45;6.00;;;0.10;82.10;;;;;;5008401;28;20665;-50
2022/12/17 23:42:53;;;;;;;8.85;5.43;;;0.10;82.10;;;;;;5022455;28;20537;-50
2022/12/17 23:45:23;;;;;;;10.80;6.40;;;0.10;81.90;;;;;;5009124;28;20224;-49
2022/12/17 23:47:52;;;;;;;8.60;5.88;;;0.20;81.80;;;;;;5001906;28;20199;-50
2022/12/17 23:50:21;;;;;;;12.88;6.80;;;0.10;81.60;;;;;;5002285;28;20221;-50
2022/12/17 23:52:50;;;;;;;8.88;5.78;;;0.10;81.20;;;;;;5008945;28;20657;-48
2022/12/17 23:55:19;;;;;;;13.55;7.00;;;0.10;81.50;;;;;;5007973;28;20213;-49
2022/12/17 23:57:47;;;;;;;10.00;8.43;;;0.10;80.20;;;;;;5027305;28;20193;-48
